Time;durP1;ratioP1;P1;durP2;ratioP2;P2;SDS_P1;SDS_P2;PMS_P1;PMS_P2;Temp;Humidity;BMP_temperature;BMP_pressure;BME280_temperature;BME280_humidity;BME280_pressure;Samples;Min_cycle;Max_cycle;Signal;HPM_P1;HPM_P2
2022/05/03 00:00:09;;;;;;;7.43;4.57;;;;;;;-145.18;100.00;46719.00;4992144;28;20291;-71
2022/05/03 00:02:46;;;;;;;7.37;4.93;;;;;;;-145.18;100.00;46703.38;4991822;28;20326;-71
2022/05/03 00:05:27;;;;;;;8.03;4.63;;;;;;;-145.18;100.00;46697.50;4991919;28;20370;-71
2022/05/03 00:08:08;;;;;;;7.50;5.37;;;;;;;-145.18;100.00;46677.97;4991296;28;20272;-71
2022/05/03 00:11:12;;;;;;;9.57;5.13;;;;;;;-145.18;100.00;46660.41;4992148;28;20267;-71
2022/05/03 00:13:46;;;;;;;8.37;5.43;;;;;;;-145.18;100.00;46652.59;4991993;28;20264;-71
2022/05/03 00:16:13;;;;;;;9.13;5.90;;;;;;;-145.18;100.00;46648.69;4990589;28;20779;-71
2022/05/03 00:18:41;;;;;;;9.17;5.13;;;;;;;-145.18;100.00;46623.28;4991770;28;20264;-71
2022/05/03 00:21:06;;;;;;;10.20;6.23;;;;;;;-145.18;100.00;46629.13;4991389;28;21100;-71
2022/05/03 00:23:32;;;;;;;8.77;5.47;;;;;;;-145.18;100.00;46627.19;4991176;28;20288;-71
2022/05/03 00:25:58;;;;;;;8.93;5.60;;;;;;;-145.18;100.00;46625.22;4991436;28;20034;-71
2022/05/03 00:28:25;;;;;;;6.67;5.43;;;;;;;-145.18;100.00;46623.28;4974168;28;20295;-71
2022/05/03 00:30:51;;;;;;;9.17;5.57;;;;;;;-145.18;100.00;46617.41;4991227;28;20272;-71
2022/05/03 00:33:18;;;;;;;10.13;6.40;;;;;;;-145.18;100.00;46621.31;4991241;28;20319;-71
2022/05/03 00:35:44;;;;;;;10.30;6.40;;;;;;;-145.18;100.00;46615.47;4991778;28;20275;-71
2022/05/03 00:38:09;;;;;;;9.00;5.23;;;;;;;-145.18;100.00;46607.66;4990629;28;20764;-71
2022/05/03 00:40:39;;;;;;;8.53;5.50;;;;;;;-145.18;100.00;46611.56;4991429;28;20491;-71
2022/05/03 00:43:14;;;;;;;8.53;5.60;;;;;;;-145.18;100.00;46603.75;4990949;28;20038;-71
2022/05/03 00:45:48;;;;;;;7.47;5.88;;;;;;;-145.18;100.00;46607.66;4973812;28;20719;-71
2022/05/03 00:48:26;;;;;;;11.57;6.27;;;;;;;-145.18;100.00;46597.88;4990956;28;20027;-71
2022/05/03 00:51:57;;;;;;;10.83;5.97;;;;;;;-145.18;100.00;46595.94;4990977;28;20657;-71
2022/05/03 00:54:37;;;;;;;11.03;7.33;;;;;;;-145.18;100.00;46590.06;4906152;28;20774;-71
2022/05/03 00:57:31;;;;;;;8.87;6.57;;;;;;;-145.18;100.00;46638.91;4985698;28;20272;-71
2022/05/03 01:00:11;;;;;;;9.10;6.43;;;;;;;-145.18;100.00;46629.13;4990752;28;20267;-71
2022/05/03 01:03:03;;;;;;;9.50;6.83;;;;;;;-145.18;100.00;46631.09;4990153;28;20280;-71
2022/05/03 01:05:37;;;;;;;11.30;7.27;;;;;;;-145.18;100.00;46593.97;4990785;28;20355;-71
2022/05/03 01:08:05;;;;;;;10.63;6.60;;;;;;;-145.18;100.00;46638.91;4989073;28;20688;-71
2022/05/03 01:10:47;;;;;;;12.50;7.10;;;;;;;-145.18;100.00;46636.94;4990675;28;20318;-71
2022/05/03 01:13:33;;;;;;;12.53;8.30;;;;;;;-145.18;100.00;46629.13;4990317;28;20295;-71
2022/05/03 01:16:11;;;;;;;13.90;8.40;;;;;;;-145.18;100.00;46629.13;4990648;28;20256;-71
2022/05/03 01:18:56;;;;;;;11.40;7.33;;;;;;;-145.18;100.00;46633.06;4990675;28;20756;-71
2022/05/03 01:21:57;;;;;;;13.50;7.80;;;;;;;-145.18;100.00;46627.19;4990012;28;20982;-71
2022/05/03 01:24:25;;;;;;;15.87;7.90;;;;;;;-145.18;100.00;46621.31;4990652;28;20287;-71
2022/05/03 01:27:00;;;;;;;11.80;8.17;;;;;;;-145.18;100.00;46574.44;4989227;28;20268;-71
2022/05/03 01:29:34;;;;;;;12.98;8.55;;;;;;;-145.18;100.00;46578.34;4989266;28;20633;-71
2022/05/03 01:32:02;;;;;;;11.00;8.10;;;;;;;-145.18;100.00;46578.34;4989845;28;20372;-71
2022/05/03 01:34:29;;;;;;;14.53;8.13;;;;;;;-145.18;100.00;46576.41;4990287;28;20299;-71
2022/05/03 01:37:00;;;;;;;14.23;9.00;;;;;;;-145.18;100.00;46617.41;4989845;28;20283;-71
2022/05/03 01:39:37;;;;;;;13.73;9.17;;;;;;;-145.18;100.00;46572.50;4989059;28;20275;-71
2022/05/03 01:42:24;;;;;;;14.97;10.40;;;;;;;-145.18;100.00;46568.59;4989965;28;20259;-71
2022/05/03 01:45:02;;;;;;;15.93;10.60;;;;;;;-145.18;100.00;46574.44;4990080;28;20644;-71
2022/05/03 01:48:03;;;;;;;15.93;9.93;;;;;;;-145.18;100.00;46574.44;4989505;28;20753;-71
2022/05/03 01:50:54;;;;;;;16.13;9.83;;;;;;;-145.18;100.00;46576.41;4960060;28;20272;-71
2022/05/03 01:53:43;;;;;;;18.03;10.47;;;;;;;-145.18;100.00;46576.41;4989955;28;20280;-71
2022/05/03 01:56:33;;;;;;;16.07;10.50;;;;;;;-145.18;100.00;46574.44;4989964;28;20256;-71
2022/05/03 01:59:41;;;;;;;16.43;10.13;;;;;;;-145.18;100.00;46572.50;4989519;28;20256;-71
2022/05/03 02:02:38;;;;;;;16.50;11.10;;;;;;;-145.18;100.00;46617.41;5531652;23;20271;-70
2022/05/03 02:05:06;;;;;;;16.43;10.80;;;;;;;-145.18;100.00;46617.41;4992368;28;20296;-71
2022/05/03 02:07:58;;;;;;;15.30;10.57;;;;;;;-145.18;100.00;46619.38;4992205;28;20762;-70
2022/05/03 02:10:33;;;;;;;14.97;9.97;;;;;;;-145.18;100.00;46617.41;5007395;28;20609;-70
2022/05/03 02:13:20;;;;;;;16.87;11.13;;;;;;;-145.18;100.00;46617.41;5009311;28;20313;-70
2022/05/03 02:15:49;;;;;;;20.13;11.77;;;;;;;-145.18;100.00;46572.50;5010182;28;21007;-70
2022/05/03 02:18:26;;;;;;;20.23;12.00;;;;;;;-145.18;100.00;46566.63;5009698;28;20351;-71
2022/05/03 02:21:08;;;;;;;19.53;12.87;;;;;;;-145.18;100.00;46564.69;5010020;28;20656;-70
2022/05/03 02:23:51;;;;;;;20.17;12.53;;;;;;;-145.18;100.00;46572.50;5009628;28;20263;-70
2022/05/03 02:26:28;;;;;;;15.67;10.33;;;;;;;-145.18;100.00;46572.50;5010059;28;20271;-70
2022/05/03 02:29:13;;;;;;;19.50;11.23;;;;;;;-145.18;100.00;46570.53;5009634;28;20619;-70
2022/05/03 02:31:55;;;;;;;13.73;9.30;;;;;;;-145.18;100.00;46574.44;5009662;28;20385;-70
2022/05/03 02:34:40;;;;;;;13.60;8.87;;;;;;;-145.18;100.00;46625.22;5009941;28;20432;-70
2022/05/03 02:37:24;;;;;;;14.10;8.87;;;;;;;-145.18;100.00;46633.06;5009046;28;20275;-70
2022/05/03 02:39:53;;;;;;;11.97;9.00;;;;;;;-145.18;100.00;46625.22;5013299;28;20802;-71
2022/05/03 02:42:20;;;;;;;16.00;9.90;;;;;;;-145.18;100.00;46627.19;5013163;28;20773;-70
2022/05/03 02:44:47;;;;;;;13.83;10.33;;;;;;;-145.18;100.00;46627.19;5013245;28;20267;-70
2022/05/03 02:47:45;;;;;;;16.50;10.80;;;;;;;-145.18;100.00;46627.19;5006687;28;20843;-70
2022/05/03 02:50:53;;;;;;;21.07;10.53;;;;;;;-145.18;100.00;46619.38;4993800;28;20264;-70
2022/05/03 02:53:32;;;;;;;18.50;10.77;;;;;;;-145.18;100.00;46623.28;4894806;29;20302;-70
2022/05/03 02:56:02;;;;;;;15.43;10.47;;;;;;;-145.18;100.00;46617.41;4895506;29;20279;-70
2022/05/03 02:58:43;;;;;;;18.80;12.30;;;;;;;-145.18;100.00;46617.41;4954280;28;20280;-70
2022/05/03 03:01:49;;;;;;;23.23;13.17;;;;;;;-145.18;100.00;46564.69;4993110;28;20274;-70
2022/05/03 03:04:43;;;;;;;15.23;9.43;;;;;;;-145.18;100.00;46560.78;4946005;28;20288;-70
2022/05/03 03:07:16;;;;;;;18.27;12.90;;;;;;;-145.18;100.00;46568.59;4992859;28;20609;-70
2022/05/03 03:09:58;;;;;;;17.40;11.80;;;;;;;-145.18;100.00;46572.50;4975955;28;20911;-70
2022/05/03 03:12:30;;;;;;;20.50;11.30;;;;;;;-145.18;100.00;46568.59;4993227;28;20545;-70
2022/05/03 03:15:06;;;;;;;17.23;11.37;;;;;;;-145.18;100.00;46566.63;4993481;28;20366;-70
2022/05/03 03:17:35;;;;;;;19.03;12.83;;;;;;;-145.18;100.00;46613.50;4993060;28;20344;-71
2022/05/03 03:20:14;;;;;;;20.87;13.07;;;;;;;-145.18;100.00;46615.47;4975467;28;20641;-70
2022/05/03 03:22:43;;;;;;;21.73;12.90;;;;;;;-145.18;100.00;46652.59;4992920;28;20289;-70
2022/05/03 03:25:12;;;;;;;25.37;14.73;;;;;;;-145.18;100.00;46656.50;4993028;28;20271;-70
2022/05/03 03:27:39;;;;;;;24.60;15.63;;;;;;;-145.18;100.00;46670.16;4992729;28;20260;-70
2022/05/03 03:30:09;;;;;;;28.47;15.73;;;;;;;-145.18;100.00;46677.97;4992799;28;20280;-70
2022/05/03 03:32:45;;;;;;;25.70;15.73;;;;;;;-145.18;100.00;46689.69;4992584;28;20644;-70
2022/05/03 03:35:12;;;;;;;30.10;17.77;;;;;;;-145.18;100.00;46691.66;4992807;28;20276;-70
2022/05/03 03:37:42;;;;;;;28.10;17.30;;;;;;;-145.18;100.00;46689.69;4992505;28;20299;-70
2022/05/03 03:40:08;;;;;;;33.93;18.37;;;;;;;-145.18;100.00;46679.94;4992792;28;21115;-70
2022/05/03 03:42:33;;;;;;;33.37;19.90;;;;;;;-145.18;100.00;46679.94;4992271;28;20276;-70
2022/05/03 03:45:01;;;;;;;36.73;20.77;;;;;;;-145.18;100.00;46683.84;4992710;28;20624;-70
2022/05/03 03:47:29;;;;;;;35.77;21.13;;;;;;;-145.18;100.00;46681.88;4992284;28;20034;-70
2022/05/03 03:49:56;;;;;;;34.53;20.60;;;;;;;-145.18;100.00;46676.03;4991718;28;20272;-70
2022/05/03 03:52:23;;;;;;;33.90;20.97;;;;;;;-145.18;100.00;46679.94;4992070;28;20387;-70
2022/05/03 03:54:49;;;;;;;36.30;22.40;;;;;;;-145.18;100.00;46677.97;4992599;28;20284;-70
2022/05/03 03:57:15;;;;;;;32.80;20.13;;;;;;;-145.18;100.00;46677.97;4992125;28;20639;-71
2022/05/03 03:59:41;;;;;;;36.47;23.27;;;;;;;-145.18;100.00;46670.16;4992908;28;20042;-71
2022/05/03 04:02:06;;;;;;;40.50;22.97;;;;;;;-145.18;100.00;46670.16;4991819;28;20276;-70
2022/05/03 04:04:35;;;;;;;44.30;23.97;;;;;;;-145.18;100.00;46672.13;4992064;28;20775;-70
2022/05/03 04:07:01;;;;;;;38.33;23.47;;;;;;;-145.18;100.00;46668.22;4991822;28;20040;-70
2022/05/03 04:09:28;;;;;;;38.53;22.23;;;;;;;-145.18;100.00;46677.97;4974413;28;20264;-70
2022/05/03 04:11:54;;;;;;;37.00;21.90;;;;;;;-145.18;100.00;46672.13;4992311;28;20110;-70
2022/05/03 04:14:19;;;;;;;37.50;22.23;;;;;;;-145.18;100.00;46674.06;4991619;28;20697;-71
2022/05/03 04:16:45;;;;;;;36.83;22.10;;;;;;;-145.18;100.00;46672.13;4974174;28;20034;-71
2022/05/03 04:19:12;;;;;;;37.23;22.97;;;;;;;-145.18;100.00;46670.16;4991084;28;20526;-70
2022/05/03 04:21:38;;;;;;;41.70;23.57;;;;;;;-145.18;100.00;46668.22;4991676;28;20397;-71
2022/05/03 04:24:04;;;;;;;45.47;25.53;;;;;;;-145.18;100.00;46668.22;4991129;28;20268;-70
2022/05/03 04:26:29;;;;;;;42.77;25.77;;;;;;;-145.18;100.00;46670.16;4992587;28;20797;-70
2022/05/03 04:29:02;;;;;;;46.87;26.83;;;;;;;-145.18;100.00;46668.22;4990888;28;20053;-70
2022/05/03 04:31:29;;;;;;;51.83;28.37;;;;;;;-145.18;100.00;46666.25;4991473;28;20126;-70
2022/05/03 04:33:55;;;;;;;52.60;28.13;;;;;;;-145.18;100.00;46670.16;4991472;28;20753;-70
2022/05/03 04:36:21;;;;;;;50.07;28.73;;;;;;;-145.18;100.00;46664.31;4991508;28;20256;-70
2022/05/03 04:38:47;;;;;;;53.90;29.07;;;;;;;-145.18;100.00;46660.41;4991036;28;20700;-70
2022/05/03 04:41:13;;;;;;;52.90;29.00;;;;;;;-145.18;100.00;46662.34;4991279;28;20050;-70
2022/05/03 04:43:38;;;;;;;48.73;29.13;;;;;;;-145.18;100.00;46662.34;4990239;28;20272;-71
2022/05/03 04:46:03;;;;;;;56.10;30.17;;;;;;;-145.18;100.00;46662.34;4989652;28;20034;-70
2022/05/03 04:48:29;;;;;;;53.07;29.97;;;;;;;-145.18;100.00;46662.34;4989619;28;20032;-71
2022/05/03 04:50:54;;;;;;;51.90;28.93;;;;;;;-145.18;100.00;46654.53;4989088;28;20029;-70
2022/05/03 04:53:21;;;;;;;55.87;28.83;;;;;;;-145.18;100.00;46660.41;4971508;28;20656;-70
2022/05/03 04:55:47;;;;;;;50.47;28.17;;;;;;;-145.18;100.00;46654.53;4989577;28;20045;-70
2022/05/03 04:58:12;;;;;;;48.67;28.63;;;;;;;-145.18;100.00;46656.50;4988798;28;20291;-70
2022/05/03 05:00:37;;;;;;;56.13;30.57;;;;;;;-145.18;100.00;46658.44;4990724;28;20541;-71
2022/05/03 05:03:03;;;;;;;49.83;29.80;;;;;;;-145.18;100.00;46654.53;4990265;28;20065;-70
2022/05/03 05:05:28;;;;;;;49.63;28.43;;;;;;;-145.18;100.00;46656.50;4990956;28;20125;-71
2022/05/03 05:07:53;;;;;;;60.03;31.87;;;;;;;-145.18;100.00;46648.69;4990522;28;20074;-70
2022/05/03 05:10:26;;;;;;;52.63;30.60;;;;;;;-145.18;100.00;46650.63;4983941;28;20042;-70
2022/05/03 05:12:55;;;;;;;58.57;31.70;;;;;;;-145.18;100.00;46652.59;5009717;28;20108;-70
2022/05/03 05:15:25;;;;;;;63.53;33.10;;;;;;;-145.18;100.00;46650.63;5010355;28;20383;-70
2022/05/03 05:17:52;;;;;;;62.77;32.87;;;;;;;-145.18;100.00;46656.50;5010388;28;20297;-71
2022/05/03 05:20:18;;;;;;;65.07;32.80;;;;;;;-145.18;100.00;46654.53;5009866;28;20806;-71
2022/05/03 05:22:45;;;;;;;60.50;33.23;;;;;;;-145.18;100.00;46658.44;5009763;28;20283;-70
2022/05/03 05:25:10;;;;;;;68.43;35.07;;;;;;;-145.18;100.00;46652.59;4992680;28;20040;-71
2022/05/03 05:27:36;;;;;;;63.10;33.87;;;;;;;-145.18;100.00;46648.69;5008961;28;20280;-71
2022/05/03 05:30:03;;;;;;;67.03;33.60;;;;;;;-145.18;100.00;46646.72;4992034;28;20021;-71
2022/05/03 05:32:28;;;;;;;67.53;34.73;;;;;;;-145.18;100.00;46650.63;5010141;28;20045;-71
2022/05/03 05:34:54;;;;;;;60.80;34.57;;;;;;;-145.18;100.00;46650.63;4992435;28;20325;-71
2022/05/03 05:37:19;;;;;;;64.43;34.87;;;;;;;-145.18;100.00;46650.63;5010162;28;20038;-71
2022/05/03 05:39:44;;;;;;;63.43;35.53;;;;;;;-145.18;100.00;46656.50;5009580;28;20044;-71
2022/05/03 05:42:11;;;;;;;64.37;34.80;;;;;;;-145.18;100.00;46652.59;4991539;28;20041;-71
2022/05/03 05:44:37;;;;;;;64.67;35.10;;;;;;;-145.18;100.00;46650.63;5009333;28;20030;-71
2022/05/03 05:47:03;;;;;;;61.10;32.47;;;;;;;-145.18;100.00;46654.53;5009548;28;20806;-71
2022/05/03 05:49:28;;;;;;;62.03;33.00;;;;;;;-145.18;100.00;46648.69;4991925;28;20104;-71
2022/05/03 05:53:31;;;;;;;62.53;33.43;;;;;;;-145.18;100.00;46656.50;5008897;28;20034;-71
2022/05/03 05:54:39;;;;;;;56.03;32.20;;;;;;;-145.18;100.00;46650.63;5009886;28;20456;-71
2022/05/03 05:57:04;;;;;;;55.97;32.07;;;;;;;-145.18;100.00;46652.59;5009432;28;20282;-71
2022/05/03 05:59:29;;;;;;;60.23;32.43;;;;;;;-145.18;100.00;46652.59;5009207;28;20754;-71
2022/05/03 06:01:55;;;;;;;54.20;30.43;;;;;;;-145.18;100.00;46658.44;4992662;28;20069;-71
2022/05/03 06:04:21;;;;;;;54.40;29.93;;;;;;;-145.18;100.00;46658.44;5008893;28;20482;-71
2022/05/03 06:06:46;;;;;;;54.63;31.27;;;;;;;-145.18;100.00;46656.50;5008675;28;20358;-71
2022/05/03 06:09:11;;;;;;;51.43;29.67;;;;;;;-145.18;100.00;46656.50;4991604;28;20111;-71
2022/05/03 06:11:37;;;;;;;51.80;28.90;;;;;;;-145.18;100.00;46652.59;5009624;28;20041;-71
2022/05/03 06:14:02;;;;;;;51.53;29.27;;;;;;;-145.18;100.00;46664.31;4993935;28;20038;-71
2022/05/03 06:16:28;;;;;;;51.50;28.97;;;;;;;-145.18;100.00;46656.50;5014012;28;20050;-71
2022/05/03 06:18:53;;;;;;;56.87;28.03;;;;;;;-145.18;100.00;46650.63;4995613;28;20085;-71
2022/05/03 06:21:19;;;;;;;47.90;27.43;;;;;;;-145.18;100.00;46652.59;5013238;28;20406;-71
2022/05/03 06:23:44;;;;;;;42.13;25.37;;;;;;;-145.18;100.00;46650.63;5013362;28;20038;-71
2022/05/03 06:26:10;;;;;;;41.77;26.57;;;;;;;-145.18;100.00;46654.53;5013332;28;20044;-71
2022/05/03 06:28:36;;;;;;;46.07;25.73;;;;;;;-145.18;100.00;46650.63;5013298;28;20492;-71
2022/05/03 06:31:01;;;;;;;45.60;27.53;;;;;;;-145.18;100.00;46646.72;5013726;28;20351;-71
2022/05/03 06:33:27;;;;;;;49.47;28.77;;;;;;;-145.18;100.00;46660.41;5012675;28;20149;-71
2022/05/03 06:35:52;;;;;;;44.33;26.03;;;;;;;-145.18;100.00;46650.63;5013247;28;20409;-71
2022/05/03 06:38:17;;;;;;;47.50;28.70;;;;;;;-145.18;100.00;46650.63;5013238;28;20490;-71
2022/05/03 06:40:43;;;;;;;47.43;29.27;;;;;;;-145.18;100.00;46648.69;5013456;28;20048;-71
2022/05/03 06:43:09;;;;;;;46.77;27.23;;;;;;;-145.18;100.00;46640.88;5012543;28;20474;-71
2022/05/03 06:45:34;;;;;;;42.83;27.17;;;;;;;-145.18;100.00;46644.78;5013427;28;20160;-71
2022/05/03 06:48:00;;;;;;;42.37;25.53;;;;;;;-145.18;100.00;46635.00;5012681;28;20490;-71
2022/05/03 06:50:27;;;;;;;42.93;25.17;;;;;;;-145.18;100.00;46636.94;5013126;28;20026;-71
2022/05/03 06:52:52;;;;;;;38.13;23.53;;;;;;;-145.18;100.00;46627.19;5012857;28;20402;-71
2022/05/03 06:55:18;;;;;;;39.77;25.07;;;;;;;-145.18;100.00;46629.13;5012599;28;20271;-71
2022/05/03 06:57:43;;;;;;;38.63;24.67;;;;;;;-145.18;100.00;46621.31;5012439;28;20126;-71
2022/05/03 07:00:10;;;;;;;36.97;23.20;;;;;;;-145.18;100.00;46597.88;5012910;28;20041;-72
2022/05/03 07:02:36;;;;;;;36.77;23.00;;;;;;;-145.18;100.00;46574.44;5012864;28;20041;-71
2022/05/03 07:05:03;;;;;;;33.10;21.63;;;;;;;-145.18;100.00;46556.88;5012188;28;20295;-71
2022/05/03 07:07:29;;;;;;;39.43;22.50;;;;;;;-145.18;100.00;46549.06;5012938;28;20267;-72
2022/05/03 07:09:56;;;;;;;34.90;22.70;;;;;;;-145.18;100.00;46543.19;5012410;28;20728;-71
2022/05/03 07:12:21;;;;;;;34.13;22.60;;;;;;;-145.18;100.00;46537.34;5011491;28;20295;-71
2022/05/03 07:14:46;;;;;;;33.83;20.23;;;;;;;-145.18;100.00;46529.53;5011816;28;20752;-71
2022/05/03 07:22:45;;;;;;;32.30;19.80;;;;;;;-145.18;100.00;46537.34;5012253;28;20030;-71
2022/05/03 07:22:48;;;;;;;29.33;18.27;;;;;;;-145.18;100.00;46533.44;5012998;28;20049;-71
2022/05/03 07:25:17;;;;;;;31.00;18.87;;;;;;;-145.18;100.00;46543.19;5010720;28;20631;-71
2022/05/03 07:27:45;;;;;;;26.97;16.90;;;;;;;-145.18;100.00;46545.16;4994636;28;20310;-71
2022/05/03 07:30:14;;;;;;;25.57;16.37;;;;;;;-145.18;100.00;46554.91;5012176;28;20676;-71
2022/05/03 07:32:40;;;;;;;26.17;16.70;;;;;;;-145.18;100.00;46558.81;5012551;28;20290;-71
2022/05/03 07:35:06;;;;;;;28.17;15.10;;;;;;;-145.18;100.00;46564.69;5011251;28;20787;-71
2022/05/03 07:37:32;;;;;;;24.70;15.30;;;;;;;-145.18;100.00;46568.59;4995020;28;20339;-71
2022/05/03 07:39:57;;;;;;;21.90;15.30;;;;;;;-145.18;100.00;46566.63;5012051;28;20108;-71
2022/05/03 07:42:22;;;;;;;22.80;13.60;;;;;;;-145.18;100.00;46615.47;5011968;28;20041;-71
2022/05/03 07:44:48;;;;;;;22.30;15.70;;;;;;;-145.18;100.00;46621.31;5012006;28;20034;-71
2022/05/03 07:47:13;;;;;;;20.73;15.60;;;;;;;-145.18;100.00;46613.50;5011761;28;20493;-72
2022/05/03 07:49:38;;;;;;;24.30;15.10;;;;;;;-145.18;100.00;46617.41;5011844;28;20471;-71
2022/05/03 07:52:06;;;;;;;27.03;16.43;;;;;;;-145.18;100.00;46603.75;5012146;28;20150;-72
2022/05/03 07:54:32;;;;;;;23.97;15.17;;;;;;;-145.18;100.00;46582.25;5011292;28;20046;-71
2022/05/03 07:56:57;;;;;;;28.07;16.40;;;;;;;-145.18;100.00;46574.44;4994263;28;20287;-71
2022/05/03 07:59:25;;;;;;;30.13;18.07;;;;;;;-145.18;100.00;46570.53;5011848;28;20113;-71
2022/05/03 08:01:51;;;;;;;28.57;18.03;;;;;;;-145.18;100.00;46572.50;5011918;28;20092;-71
2022/05/03 08:08:47;;;;;;;28.03;18.17;;;;;;;-145.18;100.00;46570.53;5010964;28;20064;-71
2022/05/03 08:15:58;;;;;;;26.17;17.70;;;;;;;-145.18;100.00;46595.94;5009943;28;20277;-71
2022/05/03 08:19:51;;;;;;;25.07;16.47;;;;;;;-145.18;100.00;46605.69;5011010;28;20279;-72
2022/05/03 08:23:44;;;;;;;24.03;17.80;;;;;;;-145.18;100.00;46582.25;5011575;28;20287;-72
2022/05/03 08:45:48;;;;;;;27.10;18.40;;;;;;;-145.18;100.00;46611.56;4969438;28;20511;-72
2022/05/03 08:49:42;;;;;;;29.43;18.63;;;;;;;-145.18;100.00;46593.97;4968982;28;20269;-72
2022/05/03 08:53:44;;;;;;;28.23;18.10;;;;;;;-145.18;100.00;46666.25;4969551;28;20035;-72
2022/05/03 08:57:37;;;;;;;29.57;18.13;;;;;;;-145.18;100.00;46631.09;4969225;28;20596;-72
